Fishing Creek, Maryland
Current Conditions -  °F | °C
As of 12:52 PM on Friday 28 Nov 2014 (Local Time) from KNHK Reporting Station
Scattered Clouds Scattered Clouds  
Wind Chill: 33°   Ceiling: Unl
Heat Index: 41°   Visibility: 10mi
Dew Point: 20°   Wind: 16mph
Humidity: 43%   Direction: 330°NNW
Pressure: 30.26"   Gusts: NA
Location:  38.31°N, 76.23°W
Report Text: KNHK 281752Z 33014KT 10SM SCT040 05/M07 A3026 RMK AO2 SLP245 T00501067 10056 21006 58014 $
Loading
Personal Weather Stations






























Interactive Weather Map New forecast layout! Learn more

10-Day Weather Forecast

Advertisements
Track Severe Weather on mobile